Elisabeth K — PBEO — position and weather

sailwx.info

Track history (hours):
 
Tides and Currents Weather Stations Pressure Air Temp Water Temp Dewpoint Dewpoint Depression Visibility Wind Speed Wind Dir Waves Ship Positions

Elisabeth K

Last reported at 2017-Oct-16 13:16 UTC. Time now 2017-Oct-17 06:07 UTC.
Position N 35°59' W 005°13'.

Length 87.9 m; beam 12.8 m; draft 5.5 m.

Type: Cargo ship. MMSI: 245712000.

Date/timePositionNaut miles runAvg speedWind from/ knotsBaromVisibWave heightAir tempDewpointWater temp
2017-Oct-16 13:16N 35°59' W 005°13'3 9.7
2017-Oct-16 13:00N 35°58' W 005°16'510.0
2017-Oct-16 12:30N 35°57' W 005°22'510.0
2017-Oct-16 12:00N 35°56' W 005°28'93 5.7
2017-Oct-15 19:40N 36°10' W 007°22'1 5.3
2017-Oct-15 19:29N 36°11' W 007°23'3 6.0
2017-Oct-15 19:00N 36°11' W 007°26'3 6.5
2017-Oct-15 18:30N 36°12' W 007°30'3 6.5
2017-Oct-15 18:00N 36°13' W 007°34'3 6.3
2017-Oct-15 17:30N 36°13' W 007°38'3 6.7
2017-Oct-15 17:00N 36°14' W 007°42'3 6.2
2017-Oct-15 16:30N 36°15' W 007°46'3 6.4
2017-Oct-15 16:00N 36°16' W 007°49'3 6.4
2017-Oct-15 15:30N 36°16' W 007°53'4 7.3
2017-Oct-15 15:00N 36°17' W 007°58'8 7.8
2017-Oct-15 14:00N 36°19' W 008°07'4 8.0
2017-Oct-15 13:30N 36°20' W 008°12'4 8.0
2017-Oct-15 13:00N 36°21' W 008°17'4 7.9
2017-Oct-15 12:30N 36°22' W 008°21'4 7.9
2017-Oct-15 12:00N 36°23' W 008°26'4 7.9
2017-Oct-15 11:30N 36°25' W 008°31'4 8.2
2017-Oct-15 11:00N 36°26' W 008°36'4 8.2
2017-Oct-15 10:30N 36°27' W 008°40'4 8.5
2017-Oct-15 10:00N 36°28' W 008°45'5 9.1
2017-Oct-15 09:30N 36°29' W 008°51'5 9.6
2017-Oct-15 09:00N 36°30' W 008°57'5 9.1
2017-Oct-15 08:30N 36°31' W 009°02'5 9.8
2017-Oct-15 08:00N 36°33' W 009°08'5 9.8
2017-Oct-15 07:30N 36°34' W 009°14'5 9.2
2017-Oct-15 07:00N 36°37' W 009°19'510.1
2017-Oct-15 06:30N 36°40' W 009°23'510.4
2017-Oct-15 06:00N 36°44' W 009°27'5 9.7
2017-Oct-15 05:30N 36°48' W 009°32'17 9.7
2017-Oct-15 03:45N 37°04' W 009°37'4 9.9
2017-Oct-15 03:19N 37°09' W 009°38'3 9.8
2017-Oct-15 03:00N 37°12' W 009°39'5 9.8
2017-Oct-15 02:30N 37°16' W 009°40'5 9.5
2017-Oct-15 02:00N 37°21' W 009°41'5 9.2
2017-Oct-15 01:29N 37°26' W 009°43'5 9.4
2017-Oct-15 01:00N 37°30' W 009°44'5 9.5
2017-Oct-15 00:30N 37°35' W 009°45'5 9.5
2017-Oct-15 00:00N 37°39' W 009°47'5 9.5
2017-Oct-14 23:30N 37°44' W 009°48'5 9.6
2017-Oct-14 23:00N 37°49' W 009°49'5 9.6
2017-Oct-14 22:30N 37°53' W 009°51'5 9.7
2017-Oct-14 22:00N 37°58' W 009°53'510.1
2017-Oct-14 21:30N 38°03' W 009°54'5 9.8
2017-Oct-14 21:00N 38°08' W 009°55'5 9.4
2017-Oct-14 20:30N 38°12' W 009°57'5 9.6
2017-Oct-14 20:00N 38°17' W 009°58'5 9.6
2017-Oct-14 19:30N 38°22' W 009°60'5 9.4
2017-Oct-14 19:00N 38°26' W 010°01'5 9.6
2017-Oct-14 18:30N 38°31' W 010°02'510.0
2017-Oct-14 18:00N 38°36' W 010°03'5 9.8
2017-Oct-14 17:30N 38°41' W 010°05'5 9.7
2017-Oct-14 17:00N 38°45' W 010°05'5 9.5
2017-Oct-14 16:30N 38°50' W 010°05'5 9.1
2017-Oct-14 16:00N 38°55' W 010°05'5 9.2
2017-Oct-14 15:30N 38°59' W 010°05'510.2
2017-Oct-14 15:00N 39°04' W 010°05'5 9.8
2017-Oct-14 14:30N 39°09' W 010°05'5 9.8
2017-Oct-14 14:00N 39°14' W 010°05'6 9.8
2017-Oct-14 13:26N 39°20' W 010°05'81 9.7
2017-Oct-14 05:04N 40°41' W 010°06'1 9.9
2017-Oct-14 04:59N 40°42' W 010°06'8 9.7
2017-Oct-14 04:11N 40°50' W 010°06'2 9.9
2017-Oct-14 04:00N 40°52' W 010°05'6 9.8
2017-Oct-14 03:23N 40°58' W 010°05'4 9.9
2017-Oct-14 03:00N 41°01' W 010°05'23 9.9
2017-Oct-14 00:37N 41°25' W 010°05'1 9.5
2017-Oct-14 00:30N 41°26' W 010°05'4210.1
2017-Oct-13 20:23N 42°07' W 010°05'410.0
2017-Oct-13 20:00N 42°11' W 010°05'5 9.7
2017-Oct-13 19:28N 42°16' W 010°05'11 9.2
2017-Oct-13 18:16N 42°27' W 010°05'3 9.9
2017-Oct-13 18:00N 42°30' W 010°05'5 9.8
2017-Oct-13 17:30N 42°35' W 010°05'  
2017-Oct-10 20:52N 50°33' W 001°58'2 6.5
2017-Oct-10 20:30N 50°35' W 001°55'3 7.0
2017-Oct-10 20:00N 50°38' W 001°54'4 7.9
2017-Oct-10 19:30N 50°42' W 001°57'1 3.0
2017-Oct-10 19:00N 50°43' W 001°59'0 0.0
2017-Oct-10 18:30N 50°43' W 001°59'0 0.0
2017-Oct-10 18:00N 50°43' W 001°59'0 0.0
2017-Oct-10 17:30N 50°43' W 001°59'0 0.0
2017-Oct-10 17:00N 50°43' W 001°59'0 0.0
2017-Oct-10 16:30N 50°43' W 001°59'0 0.0
2017-Oct-10 16:00N 50°43' W 001°59'0 0.0
2017-Oct-10 15:30N 50°43' W 001°59'0 0.0
2017-Oct-10 15:00N 50°43' W 001°59'0 0.0
2017-Oct-10 14:00N 50°43' W 001°59'0 0.0
2017-Oct-10 13:30N 50°43' W 001°59'0 0.0
2017-Oct-10 13:00N 50°43' W 001°59'0 0.0
2017-Oct-10 12:30N 50°43' W 001°59'0 0.0
2017-Oct-10 12:00N 50°43' W 001°59'0 0.0
2017-Oct-10 11:30N 50°43' W 001°59'0 0.0
2017-Oct-10 11:00N 50°43' W 001°59'0 0.0
2017-Oct-10 10:30N 50°43' W 001°59'0 0.0
2017-Oct-10 10:00N 50°43' W 001°59'0 0.0
2017-Oct-10 09:30N 50°43' W 001°59'0 0.0
2017-Oct-10 09:00N 50°43' W 001°59'0 0.0
2017-Oct-10 08:30N 50°43' W 001°59'0 0.0
2017-Oct-10 08:00N 50°43' W 001°59'0 0.0
2017-Oct-10 07:30N 50°43' W 001°59'0 0.0
2017-Oct-10 07:00N 50°43' W 001°59'0 0.0
2017-Oct-10 06:30N 50°43' W 001°59'0 0.0
2017-Oct-10 06:00N 50°43' W 001°59'0 0.0
2017-Oct-10 05:30N 50°43' W 001°59'0 0.0
2017-Oct-10 05:00N 50°43' W 001°59'0 0.0
2017-Oct-10 04:30N 50°43' W 001°59'0 0.0
2017-Oct-10 04:00N 50°43' W 001°59'0 0.0
2017-Oct-10 03:30N 50°43' W 001°59'0 0.0
2017-Oct-10 03:00N 50°43' W 001°59'0 0.0
2017-Oct-10 02:30N 50°43' W 001°59'0 0.0
2017-Oct-10 02:00N 50°43' W 001°59'0 0.0
2017-Oct-10 01:30N 50°43' W 001°59'0 0.0
2017-Oct-10 01:00N 50°43' W 001°59'0 0.0
2017-Oct-10 00:30N 50°43' W 001°59'0 0.0
2017-Oct-10 00:00N 50°43' W 001°59'0 0.0
2017-Oct-09 23:30N 50°43' W 001°59'0 0.0
2017-Oct-09 23:00N 50°43' W 001°59'0 0.0
2017-Oct-09 22:30N 50°43' W 001°59'0 0.0
2017-Oct-09 22:00N 50°43' W 001°59'0 0.0
2017-Oct-09 21:30N 50°43' W 001°59'0 0.0
2017-Oct-09 21:00N 50°43' W 001°59'0 0.0
2017-Oct-09 20:30N 50°43' W 001°59'0 0.0
2017-Oct-09 20:00N 50°43' W 001°59'0 0.0
2017-Oct-09 19:30N 50°43' W 001°59'0 0.0
2017-Oct-09 19:00N 50°43' W 001°59'0 0.0
2017-Oct-09 18:30N 50°43' W 001°59'0 0.0
2017-Oct-09 18:00N 50°43' W 001°59'0 0.0
2017-Oct-09 17:30N 50°43' W 001°59'0 0.0
2017-Oct-09 17:00N 50°43' W 001°59'0 0.0
2017-Oct-09 16:30N 50°43' W 001°59'0 0.0
2017-Oct-09 16:00N 50°43' W 001°59'0 0.0
2017-Oct-09 15:30N 50°43' W 001°59'0 0.0
2017-Oct-09 15:00N 50°43' W 001°59'0 0.0
2017-Oct-09 14:30N 50°43' W 001°59'0 0.0
2017-Oct-09 14:00N 50°43' W 001°59'0 0.0
2017-Oct-09 13:30N 50°43' W 001°59'0 0.0
2017-Oct-09 13:00N 50°43' W 001°59'0 0.0
2017-Oct-09 12:30N 50°43' W 001°59'0 0.0
2017-Oct-09 12:00N 50°43' W 001°59'0 0.0
2017-Oct-09 11:30N 50°43' W 001°59'0 0.0
2017-Oct-09 11:00N 50°43' W 001°59'0 0.0
2017-Oct-09 10:30N 50°43' W 001°59'0 0.0
2017-Oct-09 10:00N 50°43' W 001°59'0 0.0
2017-Oct-09 09:30N 50°43' W 001°59'0 0.0
2017-Oct-09 09:00N 50°43' W 001°59'0 0.0
2017-Oct-09 08:30N 50°43' W 001°59'0 0.0
2017-Oct-09 08:00N 50°43' W 001°59'0 0.0
2017-Oct-09 07:30N 50°43' W 001°59'0 0.0
2017-Oct-09 07:00N 50°43' W 001°59'0 0.0
2017-Oct-09 06:30N 50°43' W 001°59'0 0.0
2017-Oct-09 06:00N 50°43' W 001°59'0 0.0
2017-Oct-09 05:30N 50°43' W 001°59'0 0.0
2017-Oct-09 05:00N 50°43' W 001°59'0 0.0
2017-Oct-09 04:30N 50°43' W 001°59'0 0.0
2017-Oct-09 04:00N 50°43' W 001°59'0 0.0
2017-Oct-09 03:30N 50°43' W 001°59'0 0.0
2017-Oct-09 03:00N 50°43' W 001°59'0 0.0
2017-Oct-09 02:30N 50°43' W 001°59'0 0.0
2017-Oct-09 02:00N 50°43' W 001°59'0 0.0
2017-Oct-09 01:30N 50°43' W 001°59'0 0.0
2017-Oct-09 01:00N 50°43' W 001°59'0 0.0
2017-Oct-09 00:30N 50°43' W 001°59'0 0.0
2017-Oct-09 00:00N 50°43' W 001°59'0 0.0
2017-Oct-08 23:30N 50°43' W 001°59'0 0.0
2017-Oct-08 23:00N 50°43' W 001°59'0 0.0
2017-Oct-08 22:30N 50°43' W 001°59'0 0.0
2017-Oct-08 22:00N 50°43' W 001°59'0 0.0
2017-Oct-08 21:30N 50°43' W 001°59'0 0.0
2017-Oct-08 21:00N 50°43' W 001°59'0 0.0
2017-Oct-08 20:30N 50°43' W 001°59'0 0.0
2017-Oct-08 20:00N 50°43' W 001°59'0 0.0
2017-Oct-08 19:30N 50°43' W 001°59'0 0.0
2017-Oct-08 19:00N 50°43' W 001°59'0 0.0
2017-Oct-08 18:30N 50°43' W 001°59'0 0.0
2017-Oct-08 18:00N 50°43' W 001°59'0 0.0
2017-Oct-08 17:30N 50°43' W 001°59'0 0.0
2017-Oct-08 17:00N 50°43' W 001°59'0 0.0
2017-Oct-08 16:30N 50°43' W 001°59'0 0.0
2017-Oct-08 16:00N 50°43' W 001°59'0 0.0
2017-Oct-08 15:30N 50°43' W 001°59'0 0.0
2017-Oct-08 15:00N 50°43' W 001°59'0 0.6
2017-Oct-08 14:30N 50°42' W 001°59'4 7.9
2017-Oct-08 14:00N 50°39' W 001°55'1 1.5
2017-Oct-08 13:29N 50°39' W 001°54'0 0.0
2017-Oct-08 12:56N 50°39' W 001°54'0 0.1
2017-Oct-08 12:26N 50°40' W 001°54'0 0.1
2017-Oct-08 11:56N 50°40' W 001°54'0 0.1
2017-Oct-08 11:26N 50°40' W 001°54'0 0.0
2017-Oct-08 10:56N 50°40' W 001°54'0 0.0
2017-Oct-08 10:26N 50°40' W 001°54'0 0.0
2017-Oct-08 09:56N 50°40' W 001°54'0 0.0
2017-Oct-08 09:26N 50°40' W 001°54'0 0.0
2017-Oct-08 08:56N 50°40' W 001°54'0 0.0
2017-Oct-08 08:26N 50°40' W 001°54'0 0.0
2017-Oct-08 07:59N 50°40' W 001°54'0 0.0
2017-Oct-08 07:29N 50°40' W 001°54'0 0.0
2017-Oct-08 06:56N 50°40' W 001°54'0 0.2
2017-Oct-08 06:26N 50°39' W 001°54'1 2.4
2017-Oct-08 06:00N 50°39' W 001°53'5 9.2
2017-Oct-08 05:30N 50°34' W 001°54'30 7.2
2017-Oct-08 01:17N 50°22' W 002°38'4 7.8
2017-Oct-08 00:49N 50°21' W 002°43'2 7.7
2017-Oct-08 00:30N 50°21' W 002°47'4 8.0
2017-Oct-08 00:00N 50°20' W 002°53'4 8.5
2017-Oct-07 23:30N 50°19' W 002°59'4 8.7
2017-Oct-07 23:00N 50°17' W 003°06'4 9.0
2017-Oct-07 22:30N 50°16' W 003°13'5 9.2
2017-Oct-07 22:00N 50°15' W 003°20'4 8.9
2017-Oct-07 21:30N 50°14' W 003°26'3 5.4
2017-Oct-07 21:00N 50°13' W 003°30'1 2.5
2017-Oct-07 20:30N 50°12' W 003°32'1 2.9
2017-Oct-07 20:00N 50°11' W 003°34'2 3.1
2017-Oct-07 19:30N 50°10' W 003°36'2 3.5
2017-Oct-07 19:00N 50°10' W 003°38'2 3.7
2017-Oct-07 18:30N 50°09' W 003°41'2 3.5
2017-Oct-07 18:00N 50°09' W 003°44'2 3.2
2017-Oct-07 17:30N 50°09' W 003°46'3 6.9
2017-Oct-07 17:00N 50°09' W 003°52'7 8.0
2017-Oct-07 16:07N 50°05' W 004°01'12 8.4
2017-Oct-07 14:39N 49°56' W 004°14'39 7.0
2017-Oct-07 09:04N 49°24' W 004°50'3 7.6
2017-Oct-07 08:39N 49°22' W 004°53'2 7.7
2017-Oct-07 08:24N 49°20' W 004°55'4 8.2
2017-Oct-07 07:53N 49°17' W 004°59'7 8.9
2017-Oct-07 07:07N 49°13' W 005°08'410.3
2017-Oct-07 06:47N 49°11' W 005°13'1211.3
2017-Oct-07 05:43N 49°01' W 005°20'411.7
2017-Oct-07 05:25N 48°57' W 005°23'511.9
2017-Oct-07 05:00N 48°53' W 005°26'612.0
2017-Oct-07 04:30N 48°50' W 005°34'612.2
2017-Oct-07 04:00N 48°46' W 005°41'612.3
2017-Oct-07 03:30N 48°40' W 005°45'612.4
2017-Oct-07 03:00N 48°35' W 005°50'611.9
2017-Oct-07 02:29N 48°29' W 005°53'611.7
2017-Oct-07 02:00N 48°23' W 005°55'611.4
2017-Oct-07 01:30N 48°18' W 005°58'711.0
2017-Oct-07 00:54N 48°12' W 006°01'410.6
2017-Oct-07 00:30N 48°08' W 006°04'510.2
2017-Oct-07 00:00N 48°03' W 006°06'510.2
2017-Oct-06 23:30N 47°58' W 006°08'6 9.7
2017-Oct-06 22:56N 47°53' W 006°11'5 9.2
2017-Oct-06 22:23N 47°48' W 006°13'4 9.2
2017-Oct-06 21:58N 47°44' W 006°14'24 9.0
2017-Oct-06 19:18N 47°22' W 006°26'310.1
2017-Oct-06 19:00N 47°19' W 006°28'5510.1
2017-Oct-06 13:33N 46°27' W 006°57'0 9.6
2017-Oct-06 13:30N 46°27' W 006°57'  
Track history (hours):
 
Tides and Currents Weather Stations Pressure Air Temp Water Temp Dewpoint Dewpoint Depression Visibility Wind Speed Wind Dir Waves Ship Positions

Elisabeth K

Last reported at 2017-Oct-16 13:16 UTC. Time now 2017-Oct-17 06:07 UTC.
Position N 35°59' W 005°13'.

Length 87.9 m; beam 12.8 m; draft 5.5 m.

Type: Cargo ship. MMSI: 245712000.

Date/timePositionNaut miles runAvg speedWind from/ knotsBaromVisibWave heightAir tempDewpointWater temp
2017-Oct-16 13:16N 35°59' W 005°13'3 9.7
2017-Oct-16 13:00N 35°58' W 005°16'510.0
2017-Oct-16 12:30N 35°57' W 005°22'510.0
2017-Oct-16 12:00N 35°56' W 005°28'93 5.7
2017-Oct-15 19:40N 36°10' W 007°22'1 5.3
2017-Oct-15 19:29N 36°11' W 007°23'3 6.0
2017-Oct-15 19:00N 36°11' W 007°26'3 6.5
2017-Oct-15 18:30N 36°12' W 007°30'3 6.5
2017-Oct-15 18:00N 36°13' W 007°34'3 6.3
2017-Oct-15 17:30N 36°13' W 007°38'3 6.7
2017-Oct-15 17:00N 36°14' W 007°42'3 6.2
2017-Oct-15 16:30N 36°15' W 007°46'3 6.4
2017-Oct-15 16:00N 36°16' W 007°49'3 6.4
2017-Oct-15 15:30N 36°16' W 007°53'4 7.3
2017-Oct-15 15:00N 36°17' W 007°58'8 7.8
2017-Oct-15 14:00N 36°19' W 008°07'4 8.0
2017-Oct-15 13:30N 36°20' W 008°12'4 8.0
2017-Oct-15 13:00N 36°21' W 008°17'4 7.9
2017-Oct-15 12:30N 36°22' W 008°21'4 7.9
2017-Oct-15 12:00N 36°23' W 008°26'4 7.9
2017-Oct-15 11:30N 36°25' W 008°31'4 8.2
2017-Oct-15 11:00N 36°26' W 008°36'4 8.2
2017-Oct-15 10:30N 36°27' W 008°40'4 8.5
2017-Oct-15 10:00N 36°28' W 008°45'5 9.1
2017-Oct-15 09:30N 36°29' W 008°51'5 9.6
2017-Oct-15 09:00N 36°30' W 008°57'5 9.1
2017-Oct-15 08:30N 36°31' W 009°02'5 9.8
2017-Oct-15 08:00N 36°33' W 009°08'5 9.8
2017-Oct-15 07:30N 36°34' W 009°14'5 9.2
2017-Oct-15 07:00N 36°37' W 009°19'510.1
2017-Oct-15 06:30N 36°40' W 009°23'510.4
2017-Oct-15 06:00N 36°44' W 009°27'5 9.7
2017-Oct-15 05:30N 36°48' W 009°32'17 9.7
2017-Oct-15 03:45N 37°04' W 009°37'4 9.9
2017-Oct-15 03:19N 37°09' W 009°38'3 9.8
2017-Oct-15 03:00N 37°12' W 009°39'5 9.8
2017-Oct-15 02:30N 37°16' W 009°40'5 9.5
2017-Oct-15 02:00N 37°21' W 009°41'5 9.2
2017-Oct-15 01:29N 37°26' W 009°43'5 9.4
2017-Oct-15 01:00N 37°30' W 009°44'5 9.5
2017-Oct-15 00:30N 37°35' W 009°45'5 9.5
2017-Oct-15 00:00N 37°39' W 009°47'5 9.5
2017-Oct-14 23:30N 37°44' W 009°48'5 9.6
2017-Oct-14 23:00N 37°49' W 009°49'5 9.6
2017-Oct-14 22:30N 37°53' W 009°51'5 9.7
2017-Oct-14 22:00N 37°58' W 009°53'510.1
2017-Oct-14 21:30N 38°03' W 009°54'5 9.8
2017-Oct-14 21:00N 38°08' W 009°55'5 9.4
2017-Oct-14 20:30N 38°12' W 009°57'5 9.6
2017-Oct-14 20:00N 38°17' W 009°58'5 9.6
2017-Oct-14 19:30N 38°22' W 009°60'5 9.4
2017-Oct-14 19:00N 38°26' W 010°01'5 9.6
2017-Oct-14 18:30N 38°31' W 010°02'510.0
2017-Oct-14 18:00N 38°36' W 010°03'5 9.8
2017-Oct-14 17:30N 38°41' W 010°05'5 9.7
2017-Oct-14 17:00N 38°45' W 010°05'5 9.5
2017-Oct-14 16:30N 38°50' W 010°05'5 9.1
2017-Oct-14 16:00N 38°55' W 010°05'5 9.2
2017-Oct-14 15:30N 38°59' W 010°05'510.2
2017-Oct-14 15:00N 39°04' W 010°05'5 9.8
2017-Oct-14 14:30N 39°09' W 010°05'5 9.8
2017-Oct-14 14:00N 39°14' W 010°05'6 9.8
2017-Oct-14 13:26N 39°20' W 010°05'81 9.7
2017-Oct-14 05:04N 40°41' W 010°06'1 9.9
2017-Oct-14 04:59N 40°42' W 010°06'8 9.7
2017-Oct-14 04:11N 40°50' W 010°06'2 9.9
2017-Oct-14 04:00N 40°52' W 010°05'6 9.8
2017-Oct-14 03:23N 40°58' W 010°05'4 9.9
2017-Oct-14 03:00N 41°01' W 010°05'23 9.9
2017-Oct-14 00:37N 41°25' W 010°05'1 9.5
2017-Oct-14 00:30N 41°26' W 010°05'4210.1
2017-Oct-13 20:23N 42°07' W 010°05'410.0
2017-Oct-13 20:00N 42°11' W 010°05'5 9.7
2017-Oct-13 19:28N 42°16' W 010°05'11 9.2
2017-Oct-13 18:16N 42°27' W 010°05'3 9.9
2017-Oct-13 18:00N 42°30' W 010°05'5 9.8
2017-Oct-13 17:30N 42°35' W 010°05'  
2017-Oct-10 20:52N 50°33' W 001°58'2 6.5
2017-Oct-10 20:30N 50°35' W 001°55'3 7.0
2017-Oct-10 20:00N 50°38' W 001°54'4 7.9
2017-Oct-10 19:30N 50°42' W 001°57'1 3.0
2017-Oct-10 19:00N 50°43' W 001°59'0 0.0
2017-Oct-10 18:30N 50°43' W 001°59'0 0.0
2017-Oct-10 18:00N 50°43' W 001°59'0 0.0
2017-Oct-10 17:30N 50°43' W 001°59'0 0.0
2017-Oct-10 17:00N 50°43' W 001°59'0 0.0
2017-Oct-10 16:30N 50°43' W 001°59'0 0.0
2017-Oct-10 16:00N 50°43' W 001°59'0 0.0
2017-Oct-10 15:30N 50°43' W 001°59'0 0.0
2017-Oct-10 15:00N 50°43' W 001°59'0 0.0
2017-Oct-10 14:00N 50°43' W 001°59'0 0.0
2017-Oct-10 13:30N 50°43' W 001°59'0 0.0
2017-Oct-10 13:00N 50°43' W 001°59'0 0.0
2017-Oct-10 12:30N 50°43' W 001°59'0 0.0
2017-Oct-10 12:00N 50°43' W 001°59'0 0.0
2017-Oct-10 11:30N 50°43' W 001°59'0 0.0
2017-Oct-10 11:00N 50°43' W 001°59'0 0.0
2017-Oct-10 10:30N 50°43' W 001°59'0 0.0
2017-Oct-10 10:00N 50°43' W 001°59'0 0.0
2017-Oct-10 09:30N 50°43' W 001°59'0 0.0
2017-Oct-10 09:00N 50°43' W 001°59'0 0.0
2017-Oct-10 08:30N 50°43' W 001°59'0 0.0
2017-Oct-10 08:00N 50°43' W 001°59'0 0.0
2017-Oct-10 07:30N 50°43' W 001°59'0 0.0
2017-Oct-10 07:00N 50°43' W 001°59'0 0.0
2017-Oct-10 06:30N 50°43' W 001°59'0 0.0
2017-Oct-10 06:00N 50°43' W 001°59'0 0.0
2017-Oct-10 05:30N 50°43' W 001°59'0 0.0
2017-Oct-10 05:00N 50°43' W 001°59'0 0.0
2017-Oct-10 04:30N 50°43' W 001°59'0 0.0
2017-Oct-10 04:00N 50°43' W 001°59'0 0.0
2017-Oct-10 03:30N 50°43' W 001°59'0 0.0
2017-Oct-10 03:00N 50°43' W 001°59'0 0.0
2017-Oct-10 02:30N 50°43' W 001°59'0 0.0
2017-Oct-10 02:00N 50°43' W 001°59'0 0.0
2017-Oct-10 01:30N 50°43' W 001°59'0 0.0
2017-Oct-10 01:00N 50°43' W 001°59'0 0.0
2017-Oct-10 00:30N 50°43' W 001°59'0 0.0
2017-Oct-10 00:00N 50°43' W 001°59'0 0.0
2017-Oct-09 23:30N 50°43' W 001°59'0 0.0
2017-Oct-09 23:00N 50°43' W 001°59'0 0.0
2017-Oct-09 22:30N 50°43' W 001°59'0 0.0
2017-Oct-09 22:00N 50°43' W 001°59'0 0.0
2017-Oct-09 21:30N 50°43' W 001°59'0 0.0
2017-Oct-09 21:00N 50°43' W 001°59'0 0.0
2017-Oct-09 20:30N 50°43' W 001°59'0 0.0
2017-Oct-09 20:00N 50°43' W 001°59'0 0.0
2017-Oct-09 19:30N 50°43' W 001°59'0 0.0
2017-Oct-09 19:00N 50°43' W 001°59'0 0.0
2017-Oct-09 18:30N 50°43' W 001°59'0 0.0
2017-Oct-09 18:00N 50°43' W 001°59'0 0.0
2017-Oct-09 17:30N 50°43' W 001°59'0 0.0
2017-Oct-09 17:00N 50°43' W 001°59'0 0.0
2017-Oct-09 16:30N 50°43' W 001°59'0 0.0
2017-Oct-09 16:00N 50°43' W 001°59'0 0.0
2017-Oct-09 15:30N 50°43' W 001°59'0 0.0
2017-Oct-09 15:00N 50°43' W 001°59'0 0.0
2017-Oct-09 14:30N 50°43' W 001°59'0 0.0
2017-Oct-09 14:00N 50°43' W 001°59'0 0.0
2017-Oct-09 13:30N 50°43' W 001°59'0 0.0
2017-Oct-09 13:00N 50°43' W 001°59'0 0.0
2017-Oct-09 12:30N 50°43' W 001°59'0 0.0
2017-Oct-09 12:00N 50°43' W 001°59'0 0.0
2017-Oct-09 11:30N 50°43' W 001°59'0 0.0
2017-Oct-09 11:00N 50°43' W 001°59'0 0.0
2017-Oct-09 10:30N 50°43' W 001°59'0 0.0
2017-Oct-09 10:00N 50°43' W 001°59'0 0.0
2017-Oct-09 09:30N 50°43' W 001°59'0 0.0
2017-Oct-09 09:00N 50°43' W 001°59'0 0.0
2017-Oct-09 08:30N 50°43' W 001°59'0 0.0
2017-Oct-09 08:00N 50°43' W 001°59'0 0.0
2017-Oct-09 07:30N 50°43' W 001°59'0 0.0
2017-Oct-09 07:00N 50°43' W 001°59'0 0.0
2017-Oct-09 06:30N 50°43' W 001°59'0 0.0
2017-Oct-09 06:00N 50°43' W 001°59'0 0.0
2017-Oct-09 05:30N 50°43' W 001°59'0 0.0
2017-Oct-09 05:00N 50°43' W 001°59'0 0.0
2017-Oct-09 04:30N 50°43' W 001°59'0 0.0
2017-Oct-09 04:00N 50°43' W 001°59'0 0.0
2017-Oct-09 03:30N 50°43' W 001°59'0 0.0
2017-Oct-09 03:00N 50°43' W 001°59'0 0.0
2017-Oct-09 02:30N 50°43' W 001°59'0 0.0
2017-Oct-09 02:00N 50°43' W 001°59'0 0.0
2017-Oct-09 01:30N 50°43' W 001°59'0 0.0
2017-Oct-09 01:00N 50°43' W 001°59'0 0.0
2017-Oct-09 00:30N 50°43' W 001°59'0 0.0
2017-Oct-09 00:00N 50°43' W 001°59'0 0.0
2017-Oct-08 23:30N 50°43' W 001°59'0 0.0
2017-Oct-08 23:00N 50°43' W 001°59'0 0.0
2017-Oct-08 22:30N 50°43' W 001°59'0 0.0
2017-Oct-08 22:00N 50°43' W 001°59'0 0.0
2017-Oct-08 21:30N 50°43' W 001°59'0 0.0
2017-Oct-08 21:00N 50°43' W 001°59'0 0.0
2017-Oct-08 20:30N 50°43' W 001°59'0 0.0
2017-Oct-08 20:00N 50°43' W 001°59'0 0.0
2017-Oct-08 19:30N 50°43' W 001°59'0 0.0
2017-Oct-08 19:00N 50°43' W 001°59'0 0.0
2017-Oct-08 18:30N 50°43' W 001°59'0 0.0
2017-Oct-08 18:00N 50°43' W 001°59'0 0.0
2017-Oct-08 17:30N 50°43' W 001°59'0 0.0
2017-Oct-08 17:00N 50°43' W 001°59'0 0.0
2017-Oct-08 16:30N 50°43' W 001°59'0 0.0
2017-Oct-08 16:00N 50°43' W 001°59'0 0.0
2017-Oct-08 15:30N 50°43' W 001°59'0 0.0
2017-Oct-08 15:00N 50°43' W 001°59'0 0.6
2017-Oct-08 14:30N 50°42' W 001°59'4 7.9
2017-Oct-08 14:00N 50°39' W 001°55'1 1.5
2017-Oct-08 13:29N 50°39' W 001°54'0 0.0
2017-Oct-08 12:56N 50°39' W 001°54'0 0.1
2017-Oct-08 12:26N 50°40' W 001°54'0 0.1
2017-Oct-08 11:56N 50°40' W 001°54'0 0.1
2017-Oct-08 11:26N 50°40' W 001°54'0 0.0
2017-Oct-08 10:56N 50°40' W 001°54'0 0.0
2017-Oct-08 10:26N 50°40' W 001°54'0 0.0
2017-Oct-08 09:56N 50°40' W 001°54'0 0.0
2017-Oct-08 09:26N 50°40' W 001°54'0 0.0
2017-Oct-08 08:56N 50°40' W 001°54'0 0.0
2017-Oct-08 08:26N 50°40' W 001°54'0 0.0
2017-Oct-08 07:59N 50°40' W 001°54'0 0.0
2017-Oct-08 07:29N 50°40' W 001°54'0 0.0
2017-Oct-08 06:56N 50°40' W 001°54'0 0.2
2017-Oct-08 06:26N 50°39' W 001°54'1 2.4
2017-Oct-08 06:00N 50°39' W 001°53'5 9.2
2017-Oct-08 05:30N 50°34' W 001°54'30 7.2
2017-Oct-08 01:17N 50°22' W 002°38'4 7.8
2017-Oct-08 00:49N 50°21' W 002°43'2 7.7
2017-Oct-08 00:30N 50°21' W 002°47'4 8.0
2017-Oct-08 00:00N 50°20' W 002°53'4 8.5
2017-Oct-07 23:30N 50°19' W 002°59'4 8.7
2017-Oct-07 23:00N 50°17' W 003°06'4 9.0
2017-Oct-07 22:30N 50°16' W 003°13'5 9.2
2017-Oct-07 22:00N 50°15' W 003°20'4 8.9
2017-Oct-07 21:30N 50°14' W 003°26'3 5.4
2017-Oct-07 21:00N 50°13' W 003°30'1 2.5
2017-Oct-07 20:30N 50°12' W 003°32'1 2.9
2017-Oct-07 20:00N 50°11' W 003°34'2 3.1
2017-Oct-07 19:30N 50°10' W 003°36'2 3.5
2017-Oct-07 19:00N 50°10' W 003°38'2 3.7
2017-Oct-07 18:30N 50°09' W 003°41'2 3.5
2017-Oct-07 18:00N 50°09' W 003°44'2 3.2
2017-Oct-07 17:30N 50°09' W 003°46'3 6.9
2017-Oct-07 17:00N 50°09' W 003°52'7 8.0
2017-Oct-07 16:07N 50°05' W 004°01'12 8.4
2017-Oct-07 14:39N 49°56' W 004°14'39 7.0
2017-Oct-07 09:04N 49°24' W 004°50'3 7.6
2017-Oct-07 08:39N 49°22' W 004°53'2 7.7
2017-Oct-07 08:24N 49°20' W 004°55'4 8.2
2017-Oct-07 07:53N 49°17' W 004°59'7 8.9
2017-Oct-07 07:07N 49°13' W 005°08'410.3
2017-Oct-07 06:47N 49°11' W 005°13'1211.3
2017-Oct-07 05:43N 49°01' W 005°20'411.7
2017-Oct-07 05:25N 48°57' W 005°23'511.9
2017-Oct-07 05:00N 48°53' W 005°26'612.0
2017-Oct-07 04:30N 48°50' W 005°34'612.2
2017-Oct-07 04:00N 48°46' W 005°41'612.3
2017-Oct-07 03:30N 48°40' W 005°45'612.4
2017-Oct-07 03:00N 48°35' W 005°50'611.9
2017-Oct-07 02:29N 48°29' W 005°53'611.7
2017-Oct-07 02:00N 48°23' W 005°55'611.4
2017-Oct-07 01:30N 48°18' W 005°58'711.0
2017-Oct-07 00:54N 48°12' W 006°01'410.6
2017-Oct-07 00:30N 48°08' W 006°04'510.2
2017-Oct-07 00:00N 48°03' W 006°06'510.2
2017-Oct-06 23:30N 47°58' W 006°08'6 9.7
2017-Oct-06 22:56N 47°53' W 006°11'5 9.2
2017-Oct-06 22:23N 47°48' W 006°13'4 9.2
2017-Oct-06 21:58N 47°44' W 006°14'24 9.0
2017-Oct-06 19:18N 47°22' W 006°26'310.1
2017-Oct-06 19:00N 47°19' W 006°28'5510.1
2017-Oct-06 13:33N 46°27' W 006°57'0 9.6
2017-Oct-06 13:30N 46°27' W 006°57'  

Dump ship's entire track history